createdAt,value
2019-03-11T00:01:32.911Z,99.90
2019-03-11T00:04:03.436Z,99.90
2019-03-11T00:06:33.931Z,99.90
2019-03-11T00:09:05.053Z,99.90
2019-03-11T00:11:35.448Z,99.90
2019-03-11T00:14:05.840Z,99.90
2019-03-11T00:16:36.254Z,99.90
2019-03-11T00:19:06.669Z,99.90
2019-03-11T00:21:37.107Z,99.90
2019-03-11T00:24:07.530Z,99.90
2019-03-11T00:26:37.949Z,99.90
2019-03-11T00:29:08.306Z,99.90
2019-03-11T00:31:38.788Z,99.90
2019-03-11T00:34:09.185Z,99.90
2019-03-11T00:36:39.582Z,99.90
2019-03-11T00:39:10.065Z,99.90
2019-03-11T00:41:40.426Z,99.90
2019-03-11T00:44:10.872Z,99.90
2019-03-11T00:46:41.268Z,99.90
2019-03-11T00:49:11.772Z,99.90
2019-03-11T00:51:42.127Z,99.90
2019-03-11T00:54:12.535Z,99.90
2019-03-11T00:56:42.903Z,99.90
2019-03-11T00:59:13.386Z,99.90
2019-03-11T01:01:43.807Z,99.90
2019-03-11T01:04:14.270Z,99.90
2019-03-11T01:06:44.692Z,99.90
2019-03-11T01:09:15.144Z,99.90
2019-03-11T01:11:45.534Z,99.90
2019-03-11T01:14:16.010Z,99.90
2019-03-11T01:16:46.426Z,99.90
2019-03-11T01:19:16.797Z,99.90
2019-03-11T01:21:47.249Z,99.90
2019-03-11T01:24:17.611Z,99.90
2019-03-11T01:26:47.991Z,99.90
2019-03-11T01:29:18.373Z,99.90
2019-03-11T01:31:48.754Z,99.90
2019-03-11T01:34:19.166Z,99.90
2019-03-11T01:36:49.556Z,99.90
2019-03-11T01:39:19.914Z,99.90
2019-03-11T01:41:50.263Z,99.90
2019-03-11T01:44:20.663Z,99.90
2019-03-11T01:46:51.019Z,99.90
2019-03-11T01:49:23.830Z,99.90
2019-03-11T01:51:53.497Z,99.90
2019-03-11T01:54:23.950Z,99.90
2019-03-11T01:56:54.306Z,99.90
2019-03-11T01:59:24.693Z,99.90
2019-03-11T02:01:55.073Z,99.90
2019-03-11T02:04:25.425Z,99.90
2019-03-11T02:06:55.834Z,99.90
2019-03-11T02:09:26.272Z,99.90
2019-03-11T02:11:56.658Z,99.90
2019-03-11T02:14:27.067Z,99.90
2019-03-11T02:16:57.449Z,99.90
2019-03-11T02:19:27.876Z,99.90
2019-03-11T02:21:58.278Z,99.90
2019-03-11T02:24:28.647Z,99.90
2019-03-11T02:26:59.085Z,99.90
2019-03-11T02:29:29.450Z,99.90
2019-03-11T02:31:59.883Z,99.90
2019-03-11T02:34:30.300Z,99.90
2019-03-11T02:37:00.658Z,1.00
2019-03-11T02:39:31.050Z,1.00
2019-03-11T02:42:01.451Z,1.00
2019-03-11T02:44:31.799Z,1.00
2019-03-11T02:47:02.180Z,1.00
2019-03-11T02:49:32.515Z,1.00
2019-03-11T02:52:02.883Z,1.00
2019-03-11T02:54:33.270Z,1.00
2019-03-11T02:57:03.680Z,1.00
2019-03-11T02:59:34.055Z,1.00
2019-03-11T03:02:23.399Z,1.00
2019-03-11T03:05:01.016Z,1.00
2019-03-11T03:07:31.494Z,1.00
2019-03-11T03:10:01.853Z,97.10
2019-03-11T03:12:32.285Z,99.90
2019-03-11T03:15:02.645Z,99.90
2019-03-11T03:17:33.006Z,99.90
2019-03-11T03:20:03.360Z,99.90
2019-03-11T03:22:33.724Z,99.90
2019-03-11T03:25:04.609Z,99.90
2019-03-11T03:27:34.995Z,99.90
2019-03-11T03:30:07.287Z,99.90
2019-03-11T03:32:37.630Z,99.90
2019-03-11T03:35:08.116Z,99.90
2019-03-11T03:37:38.538Z,99.90
2019-03-11T03:40:09.167Z,99.90
2019-03-11T03:42:39.656Z,99.90
2019-03-11T03:45:25.031Z,99.90
2019-03-11T03:47:55.393Z,1.00
2019-03-11T03:50:25.998Z,99.90
2019-03-11T03:52:56.349Z,99.90
2019-03-11T03:55:26.773Z,99.90
2019-03-11T03:57:57.192Z,35.60
2019-03-11T04:00:27.629Z,1.00
2019-03-11T04:02:58.059Z,99.90
2019-03-11T04:05:28.425Z,99.90
2019-03-11T04:07:58.775Z,1.00
2019-03-11T04:10:32.285Z,1.00
2019-03-11T04:13:01.217Z,81.80
2019-03-11T04:15:31.641Z,99.90
2019-03-11T04:18:02.078Z,99.90
2019-03-11T04:20:32.538Z,99.90
2019-03-11T04:23:03.155Z,99.90
2019-03-11T04:25:34.138Z,99.90
2019-03-11T04:28:05.098Z,99.90
2019-03-11T04:30:35.489Z,99.90
2019-03-11T04:33:05.868Z,99.90
2019-03-11T04:35:36.231Z,1.00
2019-03-11T04:38:06.561Z,1.00
2019-03-11T04:40:36.945Z,1.00
2019-03-11T04:43:07.296Z,1.00
2019-03-11T04:45:37.661Z,1.00
2019-03-11T04:48:08.050Z,1.00
2019-03-11T04:50:38.749Z,1.00
2019-03-11T04:53:09.078Z,1.00
2019-03-11T04:55:39.430Z,1.00
2019-03-11T04:58:09.833Z,1.00
2019-03-11T05:00:40.262Z,1.00
2019-03-11T05:03:20.783Z,1.00
2019-03-11T05:05:51.125Z,1.00
2019-03-11T05:08:21.474Z,2.60
2019-03-11T05:10:51.821Z,19.80
2019-03-11T05:13:22.179Z,19.40
2019-03-11T05:15:52.603Z,29.30
2019-03-11T05:18:22.972Z,45.30
2019-03-11T05:20:53.754Z,61.00
2019-03-11T05:23:24.109Z,86.40
2019-03-11T05:25:54.461Z,92.10
2019-03-11T05:28:24.814Z,85.40
2019-03-11T05:30:55.159Z,93.50
2019-03-11T05:33:25.546Z,82.40
2019-03-11T05:35:55.970Z,80.10
2019-03-11T05:38:26.345Z,95.80
2019-03-11T05:40:56.729Z,69.70
2019-03-11T05:43:27.086Z,57.90
2019-03-11T05:45:57.442Z,55.30
2019-03-11T05:48:27.808Z,50.70
2019-03-11T05:50:58.138Z,47.80
2019-03-11T05:53:28.506Z,22.10
2019-03-11T05:55:58.958Z,1.70
2019-03-11T05:58:29.487Z,1.00
2019-03-11T06:00:59.840Z,1.00
2019-03-11T06:03:30.244Z,1.00
2019-03-11T06:06:00.573Z,1.00
2019-03-11T06:08:30.958Z,99.90
2019-03-11T06:11:01.341Z,1.00
2019-03-11T06:13:35.923Z,99.90
2019-03-11T06:16:03.875Z,99.90
2019-03-11T06:18:49.169Z,99.90
2019-03-11T06:21:28.197Z,99.90
2019-03-11T06:23:58.579Z,99.90
2019-03-11T06:26:28.953Z,98.40
2019-03-11T06:28:59.394Z,99.90
2019-03-11T06:31:29.753Z,99.90
2019-03-11T06:34:00.162Z,1.00
2019-03-11T06:36:30.522Z,1.00
2019-03-11T06:39:05.753Z,1.00
2019-03-11T06:41:32.965Z,26.50
2019-03-11T06:44:03.307Z,99.90
2019-03-11T06:46:33.670Z,99.90
2019-03-11T06:49:04.122Z,99.90
2019-03-11T06:51:34.485Z,30.80
2019-03-11T06:54:04.865Z,50.60
2019-03-11T06:56:35.234Z,1.00
2019-03-11T06:59:05.570Z,1.00
2019-03-11T07:01:37.542Z,1.00
2019-03-11T07:04:07.885Z,99.90
2019-03-11T07:06:38.326Z,99.90
2019-03-11T07:09:09.611Z,99.90
2019-03-11T07:11:40.017Z,95.60
2019-03-11T07:14:10.373Z,37.20
2019-03-11T07:16:40.737Z,99.90
2019-03-11T07:19:11.173Z,1.00
2019-03-11T07:21:41.569Z,1.00
2019-03-11T07:24:11.893Z,1.00
2019-03-11T07:26:42.238Z,1.00
2019-03-11T07:29:12.586Z,99.90
2019-03-11T07:31:42.946Z,99.90
2019-03-11T07:34:13.313Z,99.90
2019-03-11T07:36:43.741Z,99.90
2019-03-11T07:39:14.096Z,99.90
2019-03-11T07:41:44.442Z,99.90
2019-03-11T07:44:14.778Z,99.90
2019-03-11T07:46:45.646Z,99.90
2019-03-11T07:49:16.355Z,99.90
2019-03-11T07:51:47.149Z,99.90
2019-03-11T07:54:17.474Z,99.90
2019-03-11T07:56:47.850Z,99.90
2019-03-11T07:59:18.197Z,99.90
2019-03-11T08:01:48.545Z,99.90
2019-03-11T08:04:18.929Z,99.90
2019-03-11T08:06:49.295Z,99.90
2019-03-11T08:09:19.706Z,99.90
2019-03-11T08:11:50.047Z,99.90
2019-03-11T08:14:20.389Z,99.90
2019-03-11T08:16:50.777Z,99.90
2019-03-11T08:19:21.120Z,99.90
2019-03-11T08:21:51.477Z,99.90
2019-03-11T08:24:21.877Z,99.90
2019-03-11T08:26:52.227Z,99.90
2019-03-11T08:29:22.598Z,99.90
2019-03-11T08:31:52.978Z,99.90
2019-03-11T08:34:23.333Z,99.90
2019-03-11T08:36:53.706Z,99.90
2019-03-11T08:39:24.188Z,99.90
2019-03-11T08:41:54.587Z,99.90
2019-03-11T08:44:24.945Z,99.90
2019-03-11T08:46:55.319Z,1.00
2019-03-11T08:49:25.670Z,99.90
2019-03-11T08:51:56.085Z,99.90
2019-03-11T08:54:26.478Z,99.90
2019-03-11T08:56:56.842Z,99.90
2019-03-11T08:59:27.282Z,99.90
2019-03-11T09:01:57.660Z,99.90
2019-03-11T09:04:28.022Z,99.90
2019-03-11T09:06:58.374Z,99.90
2019-03-11T09:09:28.755Z,99.90
2019-03-11T09:11:59.113Z,99.90
2019-03-11T09:14:29.461Z,99.90
2019-03-11T09:16:59.878Z,99.90
2019-03-11T09:19:30.222Z,99.90
2019-03-11T09:22:00.601Z,99.90
2019-03-11T09:24:30.946Z,99.90
2019-03-11T09:27:01.306Z,99.90
2019-03-11T09:29:31.650Z,99.90
2019-03-11T09:32:02.089Z,99.90
2019-03-11T09:34:32.461Z,99.90
2019-03-11T09:37:02.838Z,99.90
2019-03-11T09:39:33.226Z,99.90
2019-03-11T09:42:03.601Z,99.90
2019-03-11T09:44:33.945Z,99.90
2019-03-11T09:47:04.339Z,99.90
2019-03-11T09:49:34.713Z,99.90
2019-03-11T09:52:05.078Z,99.90
2019-03-11T09:54:35.478Z,99.90
2019-03-11T09:57:05.833Z,99.90
2019-03-11T09:59:36.262Z,99.90
2019-03-11T10:02:06.938Z,99.90
2019-03-11T10:04:37.279Z,99.90
2019-03-11T10:07:07.701Z,99.90
2019-03-11T10:09:38.082Z,99.90
2019-03-11T10:12:08.519Z,99.90
2019-03-11T10:14:38.870Z,99.90
2019-03-11T10:17:09.308Z,99.90
2019-03-11T10:19:39.672Z,99.90
2019-03-11T10:22:10.046Z,99.90
2019-03-11T10:24:40.467Z,99.90
2019-03-11T10:27:10.826Z,99.90
2019-03-11T10:29:41.186Z,99.90
2019-03-11T10:32:11.560Z,99.90
2019-03-11T10:34:41.922Z,99.90
2019-03-11T10:37:12.278Z,99.90
2019-03-11T10:39:42.661Z,99.90
2019-03-11T10:42:13.023Z,99.90
2019-03-11T10:44:43.390Z,99.90
2019-03-11T10:47:13.746Z,99.90
2019-03-11T10:49:44.130Z,99.90
2019-03-11T10:52:14.526Z,99.90
2019-03-11T10:54:44.906Z,99.90
2019-03-11T10:57:15.254Z,99.90
2019-03-11T10:59:45.642Z,99.90
2019-03-11T11:02:15.994Z,99.90
2019-03-11T11:04:48.020Z,99.90
2019-03-11T11:07:18.687Z,99.90
2019-03-11T11:09:49.079Z,99.90
2019-03-11T11:12:19.603Z,99.90
2019-03-11T11:14:50.004Z,99.90
2019-03-11T11:17:20.381Z,99.90
2019-03-11T11:19:50.823Z,99.90
2019-03-11T11:22:21.194Z,99.90
2019-03-11T11:24:51.566Z,99.90
2019-03-11T11:27:21.942Z,99.90
2019-03-11T11:29:52.353Z,99.90
2019-03-11T11:32:22.712Z,99.90
2019-03-11T11:34:53.090Z,99.90
2019-03-11T11:37:23.451Z,99.90
2019-03-11T11:39:53.863Z,99.90
2019-03-11T11:42:24.233Z,99.90
2019-03-11T11:44:54.596Z,99.90
2019-03-11T11:47:24.987Z,99.90
2019-03-11T11:49:55.376Z,99.90
2019-03-11T11:52:25.761Z,99.90
2019-03-11T11:54:56.193Z,99.90
2019-03-11T11:57:26.558Z,99.90
2019-03-11T11:59:57.039Z,99.90
2019-03-11T12:02:27.427Z,99.90
2019-03-11T12:04:57.799Z,99.90
2019-03-11T12:07:28.288Z,99.90
2019-03-11T12:09:58.742Z,99.90
2019-03-11T12:12:29.144Z,99.90
2019-03-11T12:14:59.546Z,99.90
2019-03-11T12:17:29.910Z,99.90
2019-03-11T12:20:00.389Z,99.90
2019-03-11T12:22:30.873Z,99.90
2019-03-11T12:25:01.226Z,99.90
2019-03-11T12:27:31.609Z,99.90
2019-03-11T12:30:01.973Z,99.90
2019-03-11T12:32:32.361Z,99.90
2019-03-11T12:35:02.737Z,99.90
2019-03-11T12:37:33.110Z,99.90
2019-03-11T12:40:03.506Z,99.90
2019-03-11T12:42:33.915Z,99.90
2019-03-11T12:45:05.017Z,99.90
2019-03-11T12:47:35.418Z,99.90
2019-03-11T12:50:06.590Z,99.90
2019-03-11T12:52:36.999Z,99.90
2019-03-11T12:55:07.542Z,99.90
2019-03-11T12:57:37.957Z,99.90
2019-03-11T13:00:08.938Z,99.90
2019-03-11T13:02:39.301Z,99.90
2019-03-11T13:05:09.715Z,99.90
2019-03-11T13:07:40.114Z,99.90
2019-03-11T13:10:12.590Z,99.90
2019-03-11T13:12:42.978Z,99.90
2019-03-11T13:15:13.910Z,99.90
2019-03-11T13:17:44.406Z,99.90
2019-03-11T13:20:20.971Z,99.90
2019-03-11T13:22:51.608Z,99.90
2019-03-11T13:25:21.995Z,99.90
2019-03-11T13:27:52.367Z,99.90
2019-03-11T13:30:22.771Z,99.90
2019-03-11T13:32:53.139Z,99.90
2019-03-11T13:35:24.814Z,99.90
2019-03-11T13:37:55.358Z,99.90
2019-03-11T13:40:25.754Z,99.90
2019-03-11T13:42:56.126Z,99.90
2019-03-11T13:45:26.565Z,99.90
2019-03-11T13:47:56.926Z,99.90
2019-03-11T13:50:27.324Z,99.90
2019-03-11T13:52:57.703Z,99.90
2019-03-11T13:55:28.093Z,99.90
2019-03-11T13:57:58.455Z,99.90
2019-03-11T14:00:28.900Z,99.90
2019-03-11T14:02:59.351Z,99.90
2019-03-11T14:05:29.743Z,99.90
2019-03-11T14:08:00.144Z,99.90
2019-03-11T14:10:30.607Z,99.90
2019-03-11T14:13:01.054Z,99.90
2019-03-11T14:15:31.643Z,99.90
2019-03-11T14:18:01.995Z,99.90
2019-03-11T14:20:32.406Z,99.90
2019-03-11T14:23:03.084Z,99.90
2019-03-11T14:25:33.534Z,99.90
2019-03-11T14:28:03.917Z,99.90
2019-03-11T14:30:34.301Z,99.90
2019-03-11T14:33:05.871Z,99.90
2019-03-11T14:35:36.342Z,99.90
2019-03-11T14:38:06.858Z,99.90
2019-03-11T14:40:37.229Z,99.90
2019-03-11T14:43:07.609Z,99.90
2019-03-11T14:45:38.062Z,99.90
2019-03-11T14:48:08.450Z,99.90
2019-03-11T14:50:38.826Z,99.90
2019-03-11T14:53:09.220Z,99.90
2019-03-11T14:55:39.568Z,99.90
2019-03-11T14:58:11.062Z,99.90
2019-03-11T15:00:41.418Z,99.90
2019-03-11T15:03:11.862Z,99.90
2019-03-11T15:05:42.231Z,99.90
2019-03-11T15:08:12.875Z,99.90
2019-03-11T15:10:43.378Z,99.90
2019-03-11T15:13:13.755Z,99.90
2019-03-11T15:15:44.179Z,99.90
2019-03-11T15:18:14.590Z,99.90
2019-03-11T15:20:44.943Z,99.90
2019-03-11T15:23:20.471Z,99.90
2019-03-11T15:25:47.423Z,99.90
2019-03-11T15:28:18.150Z,99.90
2019-03-11T15:30:48.695Z,99.90
2019-03-11T15:33:19.075Z,99.90
2019-03-11T15:35:49.445Z,99.90
2019-03-11T15:38:19.831Z,99.90
2019-03-11T15:40:52.225Z,99.90
2019-03-11T15:43:22.636Z,99.90
2019-03-11T15:45:53.003Z,99.90
2019-03-11T15:48:23.879Z,99.90
2019-03-11T15:50:54.242Z,99.90
2019-03-11T15:53:24.613Z,99.90
2019-03-11T15:55:54.970Z,99.90
2019-03-11T15:58:25.457Z,99.90
2019-03-11T16:00:55.889Z,99.90
2019-03-11T16:03:35.930Z,99.90
2019-03-11T16:05:58.362Z,99.90
2019-03-11T16:08:28.808Z,99.90
2019-03-11T16:10:59.182Z,99.90
2019-03-11T16:13:29.549Z,99.90
2019-03-11T16:15:59.932Z,99.90
2019-03-11T16:18:30.334Z,99.90
2019-03-11T16:21:00.735Z,99.90
2019-03-11T16:23:31.127Z,99.90
2019-03-11T16:26:01.498Z,99.90
2019-03-11T16:28:31.926Z,99.90
2019-03-11T16:31:02.347Z,99.90
2019-03-11T16:33:34.113Z,99.90
2019-03-11T16:36:04.838Z,99.90
2019-03-11T16:38:35.261Z,99.90
2019-03-11T16:41:05.648Z,99.90
2019-03-11T16:43:36.094Z,99.90
2019-03-11T16:46:06.500Z,99.90
2019-03-11T16:48:36.934Z,99.90
2019-03-11T16:51:07.369Z,99.90
2019-03-11T16:53:37.753Z,99.90
2019-03-11T16:56:08.202Z,99.90
2019-03-11T16:58:38.580Z,99.90
2019-03-11T17:01:10.380Z,99.90
2019-03-11T17:03:40.838Z,99.90
2019-03-11T17:06:11.287Z,99.90
2019-03-11T17:08:41.675Z,99.90
2019-03-11T17:11:12.146Z,99.90
2019-03-11T17:13:42.515Z,99.90
2019-03-11T17:16:12.899Z,99.90
2019-03-11T17:18:43.268Z,99.90
2019-03-11T17:21:13.693Z,99.90
2019-03-11T17:23:44.120Z,99.90
2019-03-11T17:26:14.551Z,99.90
2019-03-11T17:28:44.953Z,99.90
2019-03-11T17:31:15.366Z,99.90
2019-03-11T17:33:45.751Z,99.90
2019-03-11T17:36:16.107Z,99.90
2019-03-11T17:38:46.491Z,99.90
2019-03-11T17:41:17.007Z,99.90
2019-03-11T17:43:47.364Z,99.90
2019-03-11T17:46:17.851Z,99.90
2019-03-11T17:48:48.339Z,99.90
2019-03-11T17:51:18.709Z,99.90
2019-03-11T17:53:49.093Z,99.90
2019-03-11T17:56:19.470Z,99.90
2019-03-11T17:58:49.998Z,99.90
2019-03-11T18:01:20.382Z,99.90
2019-03-11T18:03:50.790Z,99.90
2019-03-11T18:06:21.167Z,99.90
2019-03-11T18:08:51.575Z,99.90
2019-03-11T18:11:21.949Z,99.90
2019-03-11T18:13:52.338Z,99.90
2019-03-11T18:16:22.719Z,99.90
2019-03-11T18:18:54.789Z,99.90
2019-03-11T18:21:25.294Z,99.90
2019-03-11T18:23:55.703Z,99.90
2019-03-11T18:26:26.184Z,99.90
2019-03-11T18:28:56.585Z,99.90
2019-03-11T18:31:26.947Z,99.90
2019-03-11T18:33:57.355Z,99.90
2019-03-11T18:36:27.775Z,99.90
2019-03-11T18:38:58.246Z,99.90
2019-03-11T18:41:28.698Z,99.90
2019-03-11T18:43:59.121Z,99.90
2019-03-11T18:46:29.568Z,99.90
2019-03-11T18:48:59.955Z,99.90
2019-03-11T18:51:30.419Z,99.90
2019-03-11T18:54:00.910Z,99.90
2019-03-11T18:56:31.313Z,99.90
2019-03-11T18:59:01.788Z,99.90
2019-03-11T19:01:32.358Z,99.90
2019-03-11T19:04:02.854Z,99.90
2019-03-11T19:06:33.364Z,99.90
2019-03-11T19:09:04.279Z,99.90
2019-03-11T19:11:34.727Z,99.90
2019-03-11T19:14:05.349Z,99.90
2019-03-11T19:16:35.845Z,99.90
2019-03-11T19:19:06.444Z,99.90
2019-03-11T19:21:36.897Z,99.90
2019-03-11T19:24:07.334Z,99.90
2019-03-11T19:26:37.814Z,99.90
2019-03-11T19:29:08.326Z,99.90
2019-03-11T19:31:38.869Z,99.90
2019-03-11T19:34:09.349Z,99.90
2019-03-11T19:36:39.744Z,99.90
2019-03-11T19:39:13.723Z,99.90
2019-03-11T19:41:44.199Z,99.90
2019-03-11T19:44:14.818Z,99.90
2019-03-11T19:46:45.274Z,99.90
2019-03-11T19:49:15.863Z,99.90
2019-03-11T19:51:46.358Z,99.90
2019-03-11T19:54:16.882Z,99.90
2019-03-11T19:56:47.428Z,99.90
2019-03-11T19:59:17.899Z,99.90
2019-03-11T20:01:48.515Z,99.90
2019-03-11T20:04:19.022Z,99.90
2019-03-11T20:06:49.445Z,99.90
2019-03-11T20:09:19.993Z,99.90
2019-03-11T20:11:50.446Z,99.90
2019-03-11T20:14:20.996Z,99.90
2019-03-11T20:16:51.416Z,99.90
2019-03-11T20:19:21.876Z,99.90
2019-03-11T20:21:52.275Z,99.90
2019-03-11T20:24:22.857Z,99.90
2019-03-11T20:26:53.362Z,99.90
2019-03-11T20:29:23.819Z,99.90
2019-03-11T20:31:54.318Z,99.90
2019-03-11T20:34:24.809Z,99.90
2019-03-11T20:36:55.227Z,99.90
2019-03-11T20:39:25.676Z,99.90
2019-03-11T20:41:56.179Z,99.90
2019-03-11T20:44:26.653Z,99.90
2019-03-11T20:46:57.008Z,99.90
2019-03-11T20:49:27.490Z,99.90
2019-03-11T20:51:57.941Z,99.90
2019-03-11T20:54:30.749Z,99.90
2019-03-11T20:57:01.202Z,99.90
2019-03-11T20:59:31.935Z,99.90
2019-03-11T21:02:02.369Z,99.90
2019-03-11T21:04:35.339Z,99.90
2019-03-11T21:07:05.759Z,99.90
2019-03-11T21:09:36.237Z,99.90
2019-03-11T21:12:06.686Z,99.90
2019-03-11T21:14:37.183Z,99.90
2019-03-11T21:17:07.700Z,99.90
2019-03-11T21:19:38.322Z,99.90
2019-03-11T21:22:08.796Z,99.90
2019-03-11T21:24:39.273Z,99.90
2019-03-11T21:27:09.767Z,99.90
2019-03-11T21:29:40.181Z,99.90
2019-03-11T21:32:10.662Z,99.90
2019-03-11T21:34:41.138Z,99.90
2019-03-11T21:37:14.615Z,99.90
2019-03-11T21:39:43.612Z,99.90
2019-03-11T21:42:14.351Z,99.90
2019-03-11T21:44:44.879Z,99.90
2019-03-11T21:47:15.390Z,99.90
2019-03-11T21:49:45.930Z,99.90
2019-03-11T21:52:16.372Z,99.90
2019-03-11T21:54:47.667Z,99.90
2019-03-11T21:57:18.377Z,99.90
2019-03-11T21:59:48.915Z,99.90
2019-03-11T22:02:19.542Z,99.90
2019-03-11T22:04:49.906Z,99.90
2019-03-11T22:07:20.398Z,99.90
2019-03-11T22:09:50.828Z,99.90
2019-03-11T22:12:21.252Z,99.90
2019-03-11T22:14:52.051Z,99.90
2019-03-11T22:17:22.396Z,99.90
2019-03-11T22:19:52.794Z,99.90
2019-03-11T22:22:23.218Z,99.90
2019-03-11T22:24:53.644Z,99.90
2019-03-11T22:27:24.094Z,99.90
2019-03-11T22:29:54.475Z,99.90
2019-03-11T22:32:25.742Z,99.90
2019-03-11T22:34:56.131Z,99.90
2019-03-11T22:37:26.557Z,99.90
2019-03-11T22:39:56.933Z,99.90
2019-03-11T22:42:27.339Z,99.90
2019-03-11T22:44:57.725Z,99.90
2019-03-11T22:47:28.134Z,99.90
2019-03-11T22:49:58.557Z,99.90
2019-03-11T22:52:29.014Z,99.90
2019-03-11T22:54:59.411Z,99.90
2019-03-11T22:57:30.062Z,99.90
2019-03-11T23:00:00.574Z,99.90
2019-03-11T23:02:40.227Z,99.90
2019-03-11T23:05:03.126Z,99.90
2019-03-11T23:07:33.483Z,99.90
2019-03-11T23:10:04.024Z,99.90
2019-03-11T23:12:34.430Z,99.90
2019-03-11T23:15:05.055Z,99.90
2019-03-11T23:17:35.446Z,99.90
2019-03-11T23:20:06.786Z,99.90
2019-03-11T23:22:37.178Z,99.90
2019-03-11T23:25:07.561Z,99.90
2019-03-11T23:27:37.973Z,99.90
2019-03-11T23:30:08.602Z,99.90
2019-03-11T23:32:38.993Z,99.90
2019-03-11T23:35:09.374Z,1.00
2019-03-11T23:37:39.798Z,1.00
2019-03-11T23:40:10.185Z,1.00
2019-03-11T23:42:40.587Z,1.00
2019-03-11T23:45:11.136Z,1.00
2019-03-11T23:47:41.573Z,1.00
2019-03-11T23:50:11.965Z,1.00
2019-03-11T23:52:42.420Z,1.00
2019-03-11T23:55:13.021Z,1.00
2019-03-11T23:57:43.409Z,1.00
